Flight Track Log - Related Links

Times and Time Zones

All times are in EDT time to prevent confusion due to time zone crossing. See the N762NB flight status page for this flight to view local times or setup timezone preferences in your user account.

Time Position Orientation Groundspeed Altitude Reporting Facility
EDT Latitude Longitude Course Direction KTS MPH feet Rate Location/Type
09:56PM 33.8333 -84.2667 121° Southeast 189 217 3,400  Level Atlanta TRACON
09:56PM 33.8333 -84.2333 90° East 182 209 4,600 1,063 Climbing Atlanta TRACON
09:57PM 33.8333 -84.1667 90° East 225 259 5,100 326 Climbing Atlanta TRACON
09:58PM 33.8214 -84.1064 103° East 244 281 5,100  Level Atlanta Center
09:59PM 33.8192 -84.0314 92° East 268 308 5,100  Level Atlanta Center
10:00PM 33.8233 -83.9514 86° East 268 308 5,100 400 Level Atlanta Center
10:01PM 33.7001 -83.9169 121° Southeast  Level FlightAware Approximate
10:01PM 33.8400 -83.8736 76° East 243 280 5,900  Level Atlanta Center
10:02PM 33.8586 -83.8036 72° East 219 252 7,100 1,200 Climbing Atlanta Center
10:03PM 33.8753 -83.7336 74° East 219 252 8,300 1,200 Climbing Atlanta Center
10:04PM 33.8917 -83.6608 75° East 219 252 9,500 1,100 Climbing Atlanta Center
10:05PM 33.9103 -83.5883 73° East 225 259 10,500 950 Climbing Atlanta Center
10:06PM 33.9267 -83.5231 73° East 225 259 11,400 950 Climbing Atlanta Center
10:07PM 33.9431 -83.4503 75° East 225 259 12,400 1,050 Climbing Atlanta Center
10:08PM 33.9636 -83.3750 72° East 225 259 13,500 1,150 Climbing Atlanta Center
10:09PM 33.9819 -83.2997 74° East 225 259 14,700 1,100 Climbing Atlanta Center
10:10PM 33.9981 -83.2194 76° East 225 259 15,700 950 Climbing Atlanta Center
10:11PM 34.0164 -83.1467 73° East 225 259 16,600 650 Climbing Atlanta Center
10:12PM 34.0344 -83.0586 76° East 230 265 17,000 200 Climbing Atlanta Center
10:13PM 34.0567 -82.9706 73° East 249 287 17,000  Level Atlanta Center
10:14PM 34.0789 -82.8825 73° East 264 304 17,000  Level Atlanta Center
10:15PM 34.1011 -82.7919 73° East 269 310 17,000  Level Atlanta Center
10:16PM 34.1250 -82.7039 72° East 269 310 17,000  Level Atlanta Center
10:17PM 34.1428 -82.6106 77° East 275 316 17,000 -50 Level Atlanta Center
10:18PM 34.1647 -82.5225 73° East 275 316 16,900 -50 Descending Atlanta Center
10:19PM 34.1864 -82.4292 74° East 280 322 16,900  Level Atlanta Center
10:20PM 34.2083 -82.3358 74° East 285 328 16,900 -150 Level Atlanta Center
10:21PM 34.2297 -82.2397 75° East 285 328 16,600 -650 Descending Atlanta Center
10:22PM 34.2469 -82.1389 78° East 285 328 15,600 -1,000 Descending Atlanta Center
10:23PM 34.2225 -82.0339 106° East 295 339 14,600 -1,015 Descending Atlanta Center
10:25PM 34.1553 -81.8161 110° East 310 357 12,300 -1,015 Descending Jacksonville Center
10:26PM 34.1231 -81.7211 112° Southeast 315 362 11,300 -1,150 Descending Jacksonville Center
10:27PM 34.0703 -81.6417 129° Southeast 304 350 10,000 -1,400 Descending Jacksonville Center
10:28PM 34.0233 -81.5647 126° Southeast 297 342 8,500 -1,500 Descending Jacksonville Center
10:29PM 33.9747 -81.4853 126° Southeast 291 335 7,000 -1,550 Descending Jacksonville Center
10:30PM 33.9464 -81.3931 110° East 291 335 5,400 -950 Descending Jacksonville Center
10:31PM 33.9308 -81.3158 104° East 265 305 5,100 -150 Descending Jacksonville Center
10:32PM 33.9217 -81.2483 99° East 226 260 5,100 -600 Level Jacksonville Center
10:33PM 33.8917 -81.1839 119° Southeast 208 239 3,900 -1,200 Descending Jacksonville Center
10:35PM 33.9333 -81.1167 104° East  Level FlightAware Approximate
10:42PM 33.9388 -81.1195 104° East  Level Estimated
10:43PM 33.9333 -81.1167 104° East  Level FlightAware Approximate
10:44PM 33.9388 -81.1195 104° East  Level Estimated

Login

Don't have an account? Register now (free) for customized features, flight alerts, and more!